KMCF/MCF METAR and TAF weather

Enter ICAO airport designator
Station Type Date Time Source
KMCF METAR 2020/03/31 13:40 UTC NOAA

KMCF 311340Z AUTO 21013KT 10SM -RA SCT016 BKN024 BKN190 26/21 A2991 RMK AO2 RAE06RAB25 CIG 016V024 BKN024 V OVC CIG 021 RWY04 SLP132 FZRANO $


Station Type Date Time Source
KMCF Decoded METAR 2020/03/31 13:40 UTC NOAA

Macdill Air Force Base, Fl., FL, United States (KMCF) 27-51N 082-30W 4M
Mar 31, 2020 - 09:40 AM EDT / 2020.03.31 1340 UTC
Wind: from the SSW (210 degrees) at 15 MPH (13 KT):0
Visibility: 10 mile(s):0
Sky conditions: mostly cloudy
Weather: light rain
Temperature: 78 F (26 C)
Dew Point: 69 F (21 C)
Relative Humidity: 73%
Pressure (altimeter): 29.91 in. Hg (1012 hPa)
ob: KMCF 311340Z AUTO 21013KT 10SM -RA SCT016 BKN024 BKN190 26/21 A2991 RMK AO2 RAE06RAB25 CIG 016V024 BKN024 V OVC CIG 021 RWY04 SLP132 FZRANO
cycle: 13

Station Type Date Time Source
KMCF TAF 2020/03/31 12:06 UTC NOAA

TAF KMCF 311200Z 3112/0118 20009KT 9000 BR BKN010 QNH2990INS
BECMG 3117/3118 23020G25KT 9999 NSW SCT030 510033 QNH2976INS
BECMG 3123/3124 24015KT 9000 -SHRA SCT030 WSCONDS 510203 QNH2976INS
BECMG 0102/0103 26015KT 9000 -SHRA BKN024 510023 QNH2974INS
BECMG 0105/0106 32018KT 9000 -SHRA BKN023 510013 QNH2973INS
BECMG 0111/0112 34020G25KT 9999 NSW FEW016 510023 QNH2984INS
BECMG 0117/0118 33015KT 9999 SKC QNH2989INS TX26/3117Z TN15/0111Z

Example: see airport list